Terminal Aerodrome Forecast
Issued by NWS Pueblo, CO

Home | Current Version | Previous Version | Text Only | Print | Product List | Glossary On
Versions: 1 2 3 4 5 6 7 8 9 10 11 12 13 14 15 16 17 18 19 20 21 22 23 24 25 26 27 28 29 30 31 32
000
FTUS45 KPUB 181721
TAFCOS
TAF
KCOS 181721Z 1818/1918 15008KT P6SM SCT110
     FM182100 15009KT P6SM BKN110
     FM190300 14007KT P6SM SCT110
     FM191700 15008KT P6SM SCT110=

USA.gov is the U.S. government's official web portal to all federal, state and local government web resources and services.